sensor_id;sensor_type;location;lat;lon;timestamp;temperature;humidity
14924;DHT22;7554;43.600;1.480;2022-08-18T00:02:19;19.60;99.90
14924;DHT22;7554;43.600;1.480;2022-08-18T00:04:48;19.70;1.00
14924;DHT22;7554;43.600;1.480;2022-08-18T00:07:18;19.70;1.00
14924;DHT22;7554;43.600;1.480;2022-08-18T00:09:46;19.70;1.00
14924;DHT22;7554;43.600;1.480;2022-08-18T00:12:16;19.60;99.90
14924;DHT22;7554;43.600;1.480;2022-08-18T00:14:44;19.70;99.90
14924;DHT22;7554;43.600;1.480;2022-08-18T00:17:12;19.60;99.90
14924;DHT22;7554;43.600;1.480;2022-08-18T00:19:40;19.60;99.90
14924;DHT22;7554;43.600;1.480;2022-08-18T00:22:09;19.60;99.90
14924;DHT22;7554;43.600;1.480;2022-08-18T00:24:38;19.60;45.60
14924;DHT22;7554;43.600;1.480;2022-08-18T00:27:06;19.60;5.50
14924;DHT22;7554;43.600;1.480;2022-08-18T00:29:35;19.60;1.00
14924;DHT22;7554;43.600;1.480;2022-08-18T00:32:11;19.60;1.00
14924;DHT22;7554;43.600;1.480;2022-08-18T00:34:38;19.60;1.00
14924;DHT22;7554;43.600;1.480;2022-08-18T00:37:07;19.50;1.00
14924;DHT22;7554;43.600;1.480;2022-08-18T00:39:35;19.60;1.00
14924;DHT22;7554;43.600;1.480;2022-08-18T00:42:13;19.60;1.00
14924;DHT22;7554;43.600;1.480;2022-08-18T00:44:40;19.50;1.00
14924;DHT22;7554;43.600;1.480;2022-08-18T00:47:09;19.50;1.00
14924;DHT22;7554;43.600;1.480;2022-08-18T00:49:40;19.50;1.00
14924;DHT22;7554;43.600;1.480;2022-08-18T00:52:11;19.50;1.00
14924;DHT22;7554;43.600;1.480;2022-08-18T00:54:41;19.50;1.00
14924;DHT22;7554;43.600;1.480;2022-08-18T00:57:10;19.50;1.00
14924;DHT22;7554;43.600;1.480;2022-08-18T00:59:43;19.40;1.00
14924;DHT22;7554;43.600;1.480;2022-08-18T01:02:23;19.40;1.00
14924;DHT22;7554;43.600;1.480;2022-08-18T01:04:56;19.40;1.00
14924;DHT22;7554;43.600;1.480;2022-08-18T01:07:31;19.40;1.00
14924;DHT22;7554;43.600;1.480;2022-08-18T01:10:00;19.40;1.00
14924;DHT22;7554;43.600;1.480;2022-08-18T01:12:31;19.40;1.00
14924;DHT22;7554;43.600;1.480;2022-08-18T01:14:58;19.30;1.00
14924;DHT22;7554;43.600;1.480;2022-08-18T01:17:26;19.30;1.00
14924;DHT22;7554;43.600;1.480;2022-08-18T01:20:20;19.30;1.00
14924;DHT22;7554;43.600;1.480;2022-08-18T01:23:13;19.20;1.00
14924;DHT22;7554;43.600;1.480;2022-08-18T01:25:40;19.20;1.00
14924;DHT22;7554;43.600;1.480;2022-08-18T01:28:25;19.30;1.00
14924;DHT22;7554;43.600;1.480;2022-08-18T01:30:55;19.30;1.00
14924;DHT22;7554;43.600;1.480;2022-08-18T01:33:24;19.30;1.00
14924;DHT22;7554;43.600;1.480;2022-08-18T01:35:58;19.30;1.00
14924;DHT22;7554;43.600;1.480;2022-08-18T01:38:29;19.30;1.00
14924;DHT22;7554;43.600;1.480;2022-08-18T01:40:57;19.20;1.00
14924;DHT22;7554;43.600;1.480;2022-08-18T01:43:25;19.20;1.00
14924;DHT22;7554;43.600;1.480;2022-08-18T01:45:52;19.30;1.00
14924;DHT22;7554;43.600;1.480;2022-08-18T01:48:26;19.30;1.00
14924;DHT22;7554;43.600;1.480;2022-08-18T01:50:58;19.20;1.00
14924;DHT22;7554;43.600;1.480;2022-08-18T01:53:25;19.10;1.00
14924;DHT22;7554;43.600;1.480;2022-08-18T01:55:55;19.00;1.00
14924;DHT22;7554;43.600;1.480;2022-08-18T01:58:23;19.00;1.00
14924;DHT22;7554;43.600;1.480;2022-08-18T02:00:53;19.00;1.00
14924;DHT22;7554;43.600;1.480;2022-08-18T02:03:23;19.00;1.00
14924;DHT22;7554;43.600;1.480;2022-08-18T02:05:57;19.00;1.00
14924;DHT22;7554;43.600;1.480;2022-08-18T02:08:25;19.00;1.00
14924;DHT22;7554;43.600;1.480;2022-08-18T02:10:52;19.00;1.00
14924;DHT22;7554;43.600;1.480;2022-08-18T02:13:21;19.00;1.00
14924;DHT22;7554;43.600;1.480;2022-08-18T02:15:48;19.00;1.00
14924;DHT22;7554;43.600;1.480;2022-08-18T02:18:17;19.10;1.00
14924;DHT22;7554;43.600;1.480;2022-08-18T02:20:45;19.10;1.00
14924;DHT22;7554;43.600;1.480;2022-08-18T02:23:13;19.20;1.00
14924;DHT22;7554;43.600;1.480;2022-08-18T02:25:41;19.20;1.00
14924;DHT22;7554;43.600;1.480;2022-08-18T02:28:09;19.20;1.00
14924;DHT22;7554;43.600;1.480;2022-08-18T02:30:38;19.30;1.00
14924;DHT22;7554;43.600;1.480;2022-08-18T02:33:06;19.20;1.00
14924;DHT22;7554;43.600;1.480;2022-08-18T02:35:35;19.20;1.00
14924;DHT22;7554;43.600;1.480;2022-08-18T02:38:04;19.20;1.00
14924;DHT22;7554;43.600;1.480;2022-08-18T02:40:33;19.20;1.00
14924;DHT22;7554;43.600;1.480;2022-08-18T02:43:05;19.10;1.00
14924;DHT22;7554;43.600;1.480;2022-08-18T02:45:34;19.20;1.00
14924;DHT22;7554;43.600;1.480;2022-08-18T02:48:04;19.20;1.00
14924;DHT22;7554;43.600;1.480;2022-08-18T02:50:32;19.20;1.00
14924;DHT22;7554;43.600;1.480;2022-08-18T02:53:08;19.30;1.00
14924;DHT22;7554;43.600;1.480;2022-08-18T02:55:37;19.30;1.00
14924;DHT22;7554;43.600;1.480;2022-08-18T02:58:04;19.20;1.00
14924;DHT22;7554;43.600;1.480;2022-08-18T03:00:32;19.30;1.00
14924;DHT22;7554;43.600;1.480;2022-08-18T03:02:59;19.20;1.00
14924;DHT22;7554;43.600;1.480;2022-08-18T03:05:29;19.30;1.00
14924;DHT22;7554;43.600;1.480;2022-08-18T03:07:56;19.30;1.00
14924;DHT22;7554;43.600;1.480;2022-08-18T03:10:24;19.30;1.00
14924;DHT22;7554;43.600;1.480;2022-08-18T03:12:51;19.20;1.00
14924;DHT22;7554;43.600;1.480;2022-08-18T03:15:19;19.10;1.00
14924;DHT22;7554;43.600;1.480;2022-08-18T03:17:46;19.10;1.00
14924;DHT22;7554;43.600;1.480;2022-08-18T03:20:14;19.10;1.00
14924;DHT22;7554;43.600;1.480;2022-08-18T03:22:42;19.20;1.00
14924;DHT22;7554;43.600;1.480;2022-08-18T03:25:10;19.20;1.00
14924;DHT22;7554;43.600;1.480;2022-08-18T03:27:37;19.30;1.00
14924;DHT22;7554;43.600;1.480;2022-08-18T03:30:06;19.30;1.00
14924;DHT22;7554;43.600;1.480;2022-08-18T03:32:33;19.20;1.00
14924;DHT22;7554;43.600;1.480;2022-08-18T03:35:01;19.20;1.00
14924;DHT22;7554;43.600;1.480;2022-08-18T03:37:28;19.30;1.00
14924;DHT22;7554;43.600;1.480;2022-08-18T03:39:57;19.40;1.00
14924;DHT22;7554;43.600;1.480;2022-08-18T03:42:24;19.40;1.00
14924;DHT22;7554;43.600;1.480;2022-08-18T03:44:51;19.30;1.00
14924;DHT22;7554;43.600;1.480;2022-08-18T03:47:19;19.30;1.00
14924;DHT22;7554;43.600;1.480;2022-08-18T03:49:46;19.40;1.00
14924;DHT22;7554;43.600;1.480;2022-08-18T03:52:14;19.40;1.00
14924;DHT22;7554;43.600;1.480;2022-08-18T03:54:41;19.40;1.00
14924;DHT22;7554;43.600;1.480;2022-08-18T03:57:10;19.40;1.00
14924;DHT22;7554;43.600;1.480;2022-08-18T03:59:39;19.40;1.00
14924;DHT22;7554;43.600;1.480;2022-08-18T04:02:09;19.40;1.00
14924;DHT22;7554;43.600;1.480;2022-08-18T04:04:37;19.40;1.00
14924;DHT22;7554;43.600;1.480;2022-08-18T04:07:07;19.40;1.00
14924;DHT22;7554;43.600;1.480;2022-08-18T04:09:36;19.40;1.00
14924;DHT22;7554;43.600;1.480;2022-08-18T04:12:06;19.30;1.00
14924;DHT22;7554;43.600;1.480;2022-08-18T04:14:39;19.30;1.00
14924;DHT22;7554;43.600;1.480;2022-08-18T04:17:07;19.20;1.00
14924;DHT22;7554;43.600;1.480;2022-08-18T04:19:35;19.30;1.00
14924;DHT22;7554;43.600;1.480;2022-08-18T04:22:03;19.30;1.00
14924;DHT22;7554;43.600;1.480;2022-08-18T04:24:31;19.20;1.00
14924;DHT22;7554;43.600;1.480;2022-08-18T04:27:02;19.20;1.00
14924;DHT22;7554;43.600;1.480;2022-08-18T04:29:30;19.10;1.00
14924;DHT22;7554;43.600;1.480;2022-08-18T04:32:01;19.10;1.00
14924;DHT22;7554;43.600;1.480;2022-08-18T04:34:30;19.10;1.00
14924;DHT22;7554;43.600;1.480;2022-08-18T04:36:58;19.10;1.00
14924;DHT22;7554;43.600;1.480;2022-08-18T04:39:27;19.10;1.00
14924;DHT22;7554;43.600;1.480;2022-08-18T04:41:54;19.10;1.00
14924;DHT22;7554;43.600;1.480;2022-08-18T04:44:21;19.20;1.00
14924;DHT22;7554;43.600;1.480;2022-08-18T04:46:51;19.10;1.00
14924;DHT22;7554;43.600;1.480;2022-08-18T04:49:22;19.00;1.00
14924;DHT22;7554;43.600;1.480;2022-08-18T04:51:51;19.00;1.00
14924;DHT22;7554;43.600;1.480;2022-08-18T04:54:33;18.80;1.00
14924;DHT22;7554;43.600;1.480;2022-08-18T04:57:08;18.90;1.00
14924;DHT22;7554;43.600;1.480;2022-08-18T04:59:36;18.90;1.00
14924;DHT22;7554;43.600;1.480;2022-08-18T05:02:05;18.80;1.00
14924;DHT22;7554;43.600;1.480;2022-08-18T05:04:35;19.00;1.00
14924;DHT22;7554;43.600;1.480;2022-08-18T05:07:04;18.90;1.00
14924;DHT22;7554;43.600;1.480;2022-08-18T05:09:32;19.00;1.00
14924;DHT22;7554;43.600;1.480;2022-08-18T05:12:00;18.90;1.00
14924;DHT22;7554;43.600;1.480;2022-08-18T05:14:28;19.00;1.00
14924;DHT22;7554;43.600;1.480;2022-08-18T05:16:57;19.00;1.00
14924;DHT22;7554;43.600;1.480;2022-08-18T05:19:25;18.90;1.00
14924;DHT22;7554;43.600;1.480;2022-08-18T05:21:54;18.90;1.00
14924;DHT22;7554;43.600;1.480;2022-08-18T05:24:22;19.00;1.00
14924;DHT22;7554;43.600;1.480;2022-08-18T05:26:51;19.00;1.00
14924;DHT22;7554;43.600;1.480;2022-08-18T05:29:19;19.00;1.00
14924;DHT22;7554;43.600;1.480;2022-08-18T05:31:46;19.00;1.00
14924;DHT22;7554;43.600;1.480;2022-08-18T05:34:15;19.00;1.00
14924;DHT22;7554;43.600;1.480;2022-08-18T05:37:02;19.00;1.00
14924;DHT22;7554;43.600;1.480;2022-08-18T05:39:37;19.00;1.00
14924;DHT22;7554;43.600;1.480;2022-08-18T05:42:10;19.00;1.00
14924;DHT22;7554;43.600;1.480;2022-08-18T05:44:41;19.00;1.00
14924;DHT22;7554;43.600;1.480;2022-08-18T05:47:12;19.00;1.00
14924;DHT22;7554;43.600;1.480;2022-08-18T05:49:43;19.10;1.00
14924;DHT22;7554;43.600;1.480;2022-08-18T05:52:16;19.10;1.00
14924;DHT22;7554;43.600;1.480;2022-08-18T05:54:49;19.00;1.00
14924;DHT22;7554;43.600;1.480;2022-08-18T05:57:41;19.00;1.00
14924;DHT22;7554;43.600;1.480;2022-08-18T06:00:10;19.00;1.00
14924;DHT22;7554;43.600;1.480;2022-08-18T06:02:41;19.10;1.00
14924;DHT22;7554;43.600;1.480;2022-08-18T06:05:18;19.00;1.00
14924;DHT22;7554;43.600;1.480;2022-08-18T06:07:52;19.00;1.00
14924;DHT22;7554;43.600;1.480;2022-08-18T06:10:21;19.10;1.00
14924;DHT22;7554;43.600;1.480;2022-08-18T06:12:51;19.10;1.00
14924;DHT22;7554;43.600;1.480;2022-08-18T06:15:24;19.90;1.00
14924;DHT22;7554;43.600;1.480;2022-08-18T06:18:10;20.80;1.00
14924;DHT22;7554;43.600;1.480;2022-08-18T06:21:00;20.50;1.00
14924;DHT22;7554;43.600;1.480;2022-08-18T06:23:38;20.50;1.00
14924;DHT22;7554;43.600;1.480;2022-08-18T06:26:16;20.10;1.00
14924;DHT22;7554;43.600;1.480;2022-08-18T06:28:54;20.10;1.00
14924;DHT22;7554;43.600;1.480;2022-08-18T06:31:31;20.10;1.00
14924;DHT22;7554;43.600;1.480;2022-08-18T06:34:06;20.80;1.00
14924;DHT22;7554;43.600;1.480;2022-08-18T06:36:46;23.40;1.00
14924;DHT22;7554;43.600;1.480;2022-08-18T06:39:23;23.40;1.00
14924;DHT22;7554;43.600;1.480;2022-08-18T06:41:52;22.10;1.00
14924;DHT22;7554;43.600;1.480;2022-08-18T06:44:24;21.20;1.00
14924;DHT22;7554;43.600;1.480;2022-08-18T06:46:57;20.70;1.00
14924;DHT22;7554;43.600;1.480;2022-08-18T06:49:42;20.50;1.00
14924;DHT22;7554;43.600;1.480;2022-08-18T06:52:19;20.60;1.00
14924;DHT22;7554;43.600;1.480;2022-08-18T06:54:49;20.70;1.00
14924;DHT22;7554;43.600;1.480;2022-08-18T06:57:26;20.80;1.00
14924;DHT22;7554;43.600;1.480;2022-08-18T06:59:56;20.80;1.00
14924;DHT22;7554;43.600;1.480;2022-08-18T07:02:36;20.70;1.00
14924;DHT22;7554;43.600;1.480;2022-08-18T07:05:06;20.40;1.00
14924;DHT22;7554;43.600;1.480;2022-08-18T07:07:36;20.30;1.00
14924;DHT22;7554;43.600;1.480;2022-08-18T07:10:27;20.30;1.00
14924;DHT22;7554;43.600;1.480;2022-08-18T07:13:19;20.40;1.00
14924;DHT22;7554;43.600;1.480;2022-08-18T07:15:47;20.60;1.00
14924;DHT22;7554;43.600;1.480;2022-08-18T07:18:22;20.50;1.00
14924;DHT22;7554;43.600;1.480;2022-08-18T07:20:52;20.60;1.00
14924;DHT22;7554;43.600;1.480;2022-08-18T07:23:27;20.50;1.00
14924;DHT22;7554;43.600;1.480;2022-08-18T07:26:07;20.70;1.00
14924;DHT22;7554;43.600;1.480;2022-08-18T07:28:38;20.80;1.00
14924;DHT22;7554;43.600;1.480;2022-08-18T07:31:17;21.10;1.00
14924;DHT22;7554;43.600;1.480;2022-08-18T07:33:51;21.40;1.00
14924;DHT22;7554;43.600;1.480;2022-08-18T07:36:24;21.80;1.00
14924;DHT22;7554;43.600;1.480;2022-08-18T07:38:55;21.80;1.00
14924;DHT22;7554;43.600;1.480;2022-08-18T07:41:30;21.70;1.00
14924;DHT22;7554;43.600;1.480;2022-08-18T07:44:08;21.50;1.00
14924;DHT22;7554;43.600;1.480;2022-08-18T07:46:43;21.20;1.00
14924;DHT22;7554;43.600;1.480;2022-08-18T07:49:17;20.40;1.00
14924;DHT22;7554;43.600;1.480;2022-08-18T07:51:47;19.50;99.90
14924;DHT22;7554;43.600;1.480;2022-08-18T07:54:24;19.10;1.00
14924;DHT22;7554;43.600;1.480;2022-08-18T07:57:00;19.20;1.00
14924;DHT22;7554;43.600;1.480;2022-08-18T07:59:35;19.50;99.90
14924;DHT22;7554;43.600;1.480;2022-08-18T08:02:21;20.10;1.00
14924;DHT22;7554;43.600;1.480;2022-08-18T08:05:00;20.40;99.90
14924;DHT22;7554;43.600;1.480;2022-08-18T08:07:34;21.20;99.90
14924;DHT22;7554;43.600;1.480;2022-08-18T08:10:18;21.10;99.90
14924;DHT22;7554;43.600;1.480;2022-08-18T08:12:52;20.70;1.00
14924;DHT22;7554;43.600;1.480;2022-08-18T08:15:29;20.50;99.90
14924;DHT22;7554;43.600;1.480;2022-08-18T08:18:03;20.50;99.90
14924;DHT22;7554;43.600;1.480;2022-08-18T08:20:38;21.00;99.90
14924;DHT22;7554;43.600;1.480;2022-08-18T08:23:18;23.60;18.60
14924;DHT22;7554;43.600;1.480;2022-08-18T08:25:58;28.20;1.00
14924;DHT22;7554;43.600;1.480;2022-08-18T08:28:47;30.70;1.00
14924;DHT22;7554;43.600;1.480;2022-08-18T08:31:24;31.70;1.00
14924;DHT22;7554;43.600;1.480;2022-08-18T08:33:57;31.20;1.00
14924;DHT22;7554;43.600;1.480;2022-08-18T08:36:28;29.10;1.00
14924;DHT22;7554;43.600;1.480;2022-08-18T08:39:00;26.50;1.00
14924;DHT22;7554;43.600;1.480;2022-08-18T08:41:32;24.90;1.00
14924;DHT22;7554;43.600;1.480;2022-08-18T08:44:08;24.10;1.00
14924;DHT22;7554;43.600;1.480;2022-08-18T08:46:43;23.90;1.00
14924;DHT22;7554;43.600;1.480;2022-08-18T08:49:22;23.50;1.00
14924;DHT22;7554;43.600;1.480;2022-08-18T08:51:55;22.90;1.00
14924;DHT22;7554;43.600;1.480;2022-08-18T08:54:27;22.50;1.00
14924;DHT22;7554;43.600;1.480;2022-08-18T08:56:59;22.30;1.00
14924;DHT22;7554;43.600;1.480;2022-08-18T08:59:30;22.50;1.00
14924;DHT22;7554;43.600;1.480;2022-08-18T09:02:12;22.70;1.00
14924;DHT22;7554;43.600;1.480;2022-08-18T09:04:53;22.80;1.00
14924;DHT22;7554;43.600;1.480;2022-08-18T09:07:35;23.20;1.00
14924;DHT22;7554;43.600;1.480;2022-08-18T09:10:35;24.20;1.00
14924;DHT22;7554;43.600;1.480;2022-08-18T09:13:38;24.50;1.00
14924;DHT22;7554;43.600;1.480;2022-08-18T09:16:21;24.70;1.00
14924;DHT22;7554;43.600;1.480;2022-08-18T09:19:00;24.70;1.00
14924;DHT22;7554;43.600;1.480;2022-08-18T09:21:40;24.80;1.00
14924;DHT22;7554;43.600;1.480;2022-08-18T09:24:20;24.20;1.00
14924;DHT22;7554;43.600;1.480;2022-08-18T09:26:51;23.90;1.00
14924;DHT22;7554;43.600;1.480;2022-08-18T09:29:24;23.40;1.00
14924;DHT22;7554;43.600;1.480;2022-08-18T09:32:34;23.00;1.00
14924;DHT22;7554;43.600;1.480;2022-08-18T09:35:22;22.50;99.90
14924;DHT22;7554;43.600;1.480;2022-08-18T09:37:55;22.50;99.90
14924;DHT22;7554;43.600;1.480;2022-08-18T09:40:46;22.60;99.90
14924;DHT22;7554;43.600;1.480;2022-08-18T09:43:35;23.30;1.00
14924;DHT22;7554;43.600;1.480;2022-08-18T09:46:05;23.80;1.00
14924;DHT22;7554;43.600;1.480;2022-08-18T09:48:36;24.20;1.00
14924;DHT22;7554;43.600;1.480;2022-08-18T09:51:32;24.60;1.00
14924;DHT22;7554;43.600;1.480;2022-08-18T09:54:09;25.10;1.00
14924;DHT22;7554;43.600;1.480;2022-08-18T09:57:04;25.60;1.00
14924;DHT22;7554;43.600;1.480;2022-08-18T10:03:21;26.10;1.00
14924;DHT22;7554;43.600;1.480;2022-08-18T10:06:20;25.80;1.00
14924;DHT22;7554;43.600;1.480;2022-08-18T10:09:12;26.30;1.00
14924;DHT22;7554;43.600;1.480;2022-08-18T10:11:52;26.30;1.00
14924;DHT22;7554;43.600;1.480;2022-08-18T10:14:31;26.30;1.00
14924;DHT22;7554;43.600;1.480;2022-08-18T10:17:10;26.20;1.00
14924;DHT22;7554;43.600;1.480;2022-08-18T10:19:48;26.20;1.00
14924;DHT22;7554;43.600;1.480;2022-08-18T10:25:31;26.10;1.00
14924;DHT22;7554;43.600;1.480;2022-08-18T10:27:58;25.90;1.00
14924;DHT22;7554;43.600;1.480;2022-08-18T10:31:02;25.90;1.00
14924;DHT22;7554;43.600;1.480;2022-08-18T10:33:58;25.40;1.00
14924;DHT22;7554;43.600;1.480;2022-08-18T10:36:39;25.50;1.00
14924;DHT22;7554;43.600;1.480;2022-08-18T10:39:11;25.50;1.00
14924;DHT22;7554;43.600;1.480;2022-08-18T10:41:54;25.20;1.00
14924;DHT22;7554;43.600;1.480;2022-08-18T10:44:23;25.00;1.00
14924;DHT22;7554;43.600;1.480;2022-08-18T10:46:52;25.10;1.00
14924;DHT22;7554;43.600;1.480;2022-08-18T10:49:24;25.20;1.00
14924;DHT22;7554;43.600;1.480;2022-08-18T10:55:02;26.00;1.00
14924;DHT22;7554;43.600;1.480;2022-08-18T10:57:50;26.00;1.00
14924;DHT22;7554;43.600;1.480;2022-08-18T11:00:22;25.90;1.00
14924;DHT22;7554;43.600;1.480;2022-08-18T11:03:01;25.70;1.00
14924;DHT22;7554;43.600;1.480;2022-08-18T11:05:33;26.10;1.00
14924;DHT22;7554;43.600;1.480;2022-08-18T11:08:03;25.90;1.00
14924;DHT22;7554;43.600;1.480;2022-08-18T11:10:37;25.60;1.00
14924;DHT22;7554;43.600;1.480;2022-08-18T11:13:10;25.40;1.00
14924;DHT22;7554;43.600;1.480;2022-08-18T11:15:48;25.20;1.00
14924;DHT22;7554;43.600;1.480;2022-08-18T11:18:30;25.30;1.00
14924;DHT22;7554;43.600;1.480;2022-08-18T11:21:23;25.60;1.00
14924;DHT22;7554;43.600;1.480;2022-08-18T11:24:05;26.30;1.00
14924;DHT22;7554;43.600;1.480;2022-08-18T11:26:35;26.60;1.00
14924;DHT22;7554;43.600;1.480;2022-08-18T11:29:29;26.30;1.00
14924;DHT22;7554;43.600;1.480;2022-08-18T11:32:03;26.00;1.00
14924;DHT22;7554;43.600;1.480;2022-08-18T11:34:40;26.20;1.00
14924;DHT22;7554;43.600;1.480;2022-08-18T11:37:20;26.30;1.00
14924;DHT22;7554;43.600;1.480;2022-08-18T11:39:50;26.60;1.00
14924;DHT22;7554;43.600;1.480;2022-08-18T11:42:27;26.50;1.00
14924;DHT22;7554;43.600;1.480;2022-08-18T11:45:03;26.30;1.00
14924;DHT22;7554;43.600;1.480;2022-08-18T11:47:31;26.30;1.00
14924;DHT22;7554;43.600;1.480;2022-08-18T11:50:09;26.30;1.00
14924;DHT22;7554;43.600;1.480;2022-08-18T11:52:50;26.60;1.00
14924;DHT22;7554;43.600;1.480;2022-08-18T11:55:25;26.70;1.00
14924;DHT22;7554;43.600;1.480;2022-08-18T11:57:55;26.70;1.00
14924;DHT22;7554;43.600;1.480;2022-08-18T12:03:35;27.10;1.00
14924;DHT22;7554;43.600;1.480;2022-08-18T12:06:16;27.60;1.00
14924;DHT22;7554;43.600;1.480;2022-08-18T12:09:03;28.00;1.00
14924;DHT22;7554;43.600;1.480;2022-08-18T12:11:49;27.50;1.00
14924;DHT22;7554;43.600;1.480;2022-08-18T12:14:19;27.30;1.00
14924;DHT22;7554;43.600;1.480;2022-08-18T12:16:49;27.20;1.00
14924;DHT22;7554;43.600;1.480;2022-08-18T12:19:17;27.50;1.00
14924;DHT22;7554;43.600;1.480;2022-08-18T12:21:51;28.00;1.00
14924;DHT22;7554;43.600;1.480;2022-08-18T12:24:25;27.80;1.00
14924;DHT22;7554;43.600;1.480;2022-08-18T12:26:56;27.10;1.00
14924;DHT22;7554;43.600;1.480;2022-08-18T12:29:25;26.40;1.00
14924;DHT22;7554;43.600;1.480;2022-08-18T12:31:55;22.40;1.00
14924;DHT22;7554;43.600;1.480;2022-08-18T12:34:27;22.30;29.60
14924;DHT22;7554;43.600;1.480;2022-08-18T12:36:57;22.20;1.00
14924;DHT22;7554;43.600;1.480;2022-08-18T12:39:26;22.00;99.90
14924;DHT22;7554;43.600;1.480;2022-08-18T12:41:54;22.50;1.00
14924;DHT22;7554;43.600;1.480;2022-08-18T12:44:21;23.00;99.90
14924;DHT22;7554;43.600;1.480;2022-08-18T12:46:49;23.10;99.90
14924;DHT22;7554;43.600;1.480;2022-08-18T12:49:23;23.80;1.00
14924;DHT22;7554;43.600;1.480;2022-08-18T12:51:56;24.00;1.00
14924;DHT22;7554;43.600;1.480;2022-08-18T12:54:35;24.60;1.00
14924;DHT22;7554;43.600;1.480;2022-08-18T12:57:06;25.00;1.00
14924;DHT22;7554;43.600;1.480;2022-08-18T12:59:37;25.30;1.00
14924;DHT22;7554;43.600;1.480;2022-08-18T13:02:07;25.70;1.00
14924;DHT22;7554;43.600;1.480;2022-08-18T13:04:40;25.60;1.00
14924;DHT22;7554;43.600;1.480;2022-08-18T13:07:09;25.60;1.00
14924;DHT22;7554;43.600;1.480;2022-08-18T13:09:40;25.30;1.00
14924;DHT22;7554;43.600;1.480;2022-08-18T13:12:08;25.50;1.00
14924;DHT22;7554;43.600;1.480;2022-08-18T13:14:38;25.40;1.00
14924;DHT22;7554;43.600;1.480;2022-08-18T13:17:06;25.50;1.00
14924;DHT22;7554;43.600;1.480;2022-08-18T13:19:36;25.50;1.00
14924;DHT22;7554;43.600;1.480;2022-08-18T13:22:05;25.40;1.00
14924;DHT22;7554;43.600;1.480;2022-08-18T13:24:39;25.30;1.00
14924;DHT22;7554;43.600;1.480;2022-08-18T13:27:06;25.20;1.00
14924;DHT22;7554;43.600;1.480;2022-08-18T13:29:34;25.20;1.00
14924;DHT22;7554;43.600;1.480;2022-08-18T13:32:02;25.30;1.00
14924;DHT22;7554;43.600;1.480;2022-08-18T13:34:34;25.20;1.00
14924;DHT22;7554;43.600;1.480;2022-08-18T13:37:01;25.30;1.00
14924;DHT22;7554;43.600;1.480;2022-08-18T13:39:31;25.20;1.00
14924;DHT22;7554;43.600;1.480;2022-08-18T13:41:59;25.30;1.00
14924;DHT22;7554;43.600;1.480;2022-08-18T13:44:27;25.60;1.00
14924;DHT22;7554;43.600;1.480;2022-08-18T13:46:56;25.90;1.00
14924;DHT22;7554;43.600;1.480;2022-08-18T13:49:24;26.10;1.00
14924;DHT22;7554;43.600;1.480;2022-08-18T13:51:53;26.30;1.00
14924;DHT22;7554;43.600;1.480;2022-08-18T13:54:26;26.50;1.00
14924;DHT22;7554;43.600;1.480;2022-08-18T13:56:58;26.70;1.00
14924;DHT22;7554;43.600;1.480;2022-08-18T13:59:27;26.90;1.00
14924;DHT22;7554;43.600;1.480;2022-08-18T14:01:58;26.80;1.00
14924;DHT22;7554;43.600;1.480;2022-08-18T14:04:28;26.60;1.00
14924;DHT22;7554;43.600;1.480;2022-08-18T14:06:55;26.40;1.00
14924;DHT22;7554;43.600;1.480;2022-08-18T14:09:24;26.20;1.00
14924;DHT22;7554;43.600;1.480;2022-08-18T14:11:51;26.20;1.00
14924;DHT22;7554;43.600;1.480;2022-08-18T14:14:20;26.40;1.00
14924;DHT22;7554;43.600;1.480;2022-08-18T14:16:49;26.70;1.00
14924;DHT22;7554;43.600;1.480;2022-08-18T14:19:16;27.10;1.00
14924;DHT22;7554;43.600;1.480;2022-08-18T14:22:01;27.10;1.00
14924;DHT22;7554;43.600;1.480;2022-08-18T14:24:46;27.20;1.00
14924;DHT22;7554;43.600;1.480;2022-08-18T14:27:32;27.20;1.00
14924;DHT22;7554;43.600;1.480;2022-08-18T14:30:08;27.20;1.00
14924;DHT22;7554;43.600;1.480;2022-08-18T14:32:36;26.90;1.00
14924;DHT22;7554;43.600;1.480;2022-08-18T14:35:07;26.70;1.00
14924;DHT22;7554;43.600;1.480;2022-08-18T14:37:35;26.40;1.00
14924;DHT22;7554;43.600;1.480;2022-08-18T14:40:03;26.40;1.00
14924;DHT22;7554;43.600;1.480;2022-08-18T14:42:33;26.20;1.00
14924;DHT22;7554;43.600;1.480;2022-08-18T14:45:01;25.90;1.00
14924;DHT22;7554;43.600;1.480;2022-08-18T14:47:30;25.90;1.00
14924;DHT22;7554;43.600;1.480;2022-08-18T14:49:57;25.90;1.00
14924;DHT22;7554;43.600;1.480;2022-08-18T14:52:26;25.90;1.00
14924;DHT22;7554;43.600;1.480;2022-08-18T14:54:53;26.00;1.00
14924;DHT22;7554;43.600;1.480;2022-08-18T14:57:37;25.90;1.00
14924;DHT22;7554;43.600;1.480;2022-08-18T15:01:51;25.90;1.00
14924;DHT22;7554;43.600;1.480;2022-08-18T15:03:57;25.90;1.00
14924;DHT22;7554;43.600;1.480;2022-08-18T15:06:27;25.80;1.00
14924;DHT22;7554;43.600;1.480;2022-08-18T15:08:55;25.90;1.00
14924;DHT22;7554;43.600;1.480;2022-08-18T15:11:23;26.10;1.00
14924;DHT22;7554;43.600;1.480;2022-08-18T15:13:51;26.20;1.00
14924;DHT22;7554;43.600;1.480;2022-08-18T15:16:19;26.40;1.00
14924;DHT22;7554;43.600;1.480;2022-08-18T15:18:48;26.60;1.00
14924;DHT22;7554;43.600;1.480;2022-08-18T15:21:17;26.80;1.00
14924;DHT22;7554;43.600;1.480;2022-08-18T15:24:02;26.90;1.00
14924;DHT22;7554;43.600;1.480;2022-08-18T15:26:47;26.80;1.00
14924;DHT22;7554;43.600;1.480;2022-08-18T15:29:14;26.80;1.00
14924;DHT22;7554;43.600;1.480;2022-08-18T15:31:42;26.70;1.00
14924;DHT22;7554;43.600;1.480;2022-08-18T15:34:11;26.70;1.00
14924;DHT22;7554;43.600;1.480;2022-08-18T15:36:40;27.00;1.00
14924;DHT22;7554;43.600;1.480;2022-08-18T15:39:07;27.20;1.00
14924;DHT22;7554;43.600;1.480;2022-08-18T15:41:36;27.00;1.00
14924;DHT22;7554;43.600;1.480;2022-08-18T15:44:06;26.80;1.00
14924;DHT22;7554;43.600;1.480;2022-08-18T15:46:35;26.90;1.00
14924;DHT22;7554;43.600;1.480;2022-08-18T15:49:04;27.20;1.00
14924;DHT22;7554;43.600;1.480;2022-08-18T15:51:33;27.30;1.00
14924;DHT22;7554;43.600;1.480;2022-08-18T15:54:02;27.20;1.00
14924;DHT22;7554;43.600;1.480;2022-08-18T15:56:31;27.20;1.00
14924;DHT22;7554;43.600;1.480;2022-08-18T15:58:59;27.30;1.00
14924;DHT22;7554;43.600;1.480;2022-08-18T16:01:33;27.50;1.00
14924;DHT22;7554;43.600;1.480;2022-08-18T16:04:03;27.40;1.00
14924;DHT22;7554;43.600;1.480;2022-08-18T16:06:31;27.20;1.00
14924;DHT22;7554;43.600;1.480;2022-08-18T16:09:02;26.90;1.00
14924;DHT22;7554;43.600;1.480;2022-08-18T16:11:30;26.60;1.00
14924;DHT22;7554;43.600;1.480;2022-08-18T16:13:57;26.40;1.00
14924;DHT22;7554;43.600;1.480;2022-08-18T16:16:25;26.20;1.00
14924;DHT22;7554;43.600;1.480;2022-08-18T16:18:53;26.20;1.00
14924;DHT22;7554;43.600;1.480;2022-08-18T16:21:23;26.20;1.00
14924;DHT22;7554;43.600;1.480;2022-08-18T16:23:55;26.20;1.00
14924;DHT22;7554;43.600;1.480;2022-08-18T16:26:24;26.10;1.00
14924;DHT22;7554;43.600;1.480;2022-08-18T16:28:52;26.10;1.00
14924;DHT22;7554;43.600;1.480;2022-08-18T16:31:22;26.00;1.00
14924;DHT22;7554;43.600;1.480;2022-08-18T16:33:52;25.90;1.00
14924;DHT22;7554;43.600;1.480;2022-08-18T16:36:21;25.80;1.00
14924;DHT22;7554;43.600;1.480;2022-08-18T16:38:50;25.70;1.00
14924;DHT22;7554;43.600;1.480;2022-08-18T16:41:20;25.60;1.00
14924;DHT22;7554;43.600;1.480;2022-08-18T16:43:49;25.40;1.00
14924;DHT22;7554;43.600;1.480;2022-08-18T16:46:22;25.30;1.00
14924;DHT22;7554;43.600;1.480;2022-08-18T16:48:53;25.20;1.00
14924;DHT22;7554;43.600;1.480;2022-08-18T16:51:22;25.10;1.00